sensor_id;sensor_type;location;lat;lon;timestamp;P1;durP1;ratioP1;P2;durP2;ratioP2
9115;SDS011;4593;53.652;10.168;2023-10-08T00:00:46;4.30;;;2.50;;
9115;SDS011;4593;53.652;10.168;2023-10-08T00:03:15;4.37;;;2.43;;
9115;SDS011;4593;53.652;10.168;2023-10-08T00:05:45;2.53;;;2.30;;
9115;SDS011;4593;53.652;10.168;2023-10-08T00:08:11;2.93;;;2.63;;
9115;SDS011;4593;53.652;10.168;2023-10-08T00:10:41;11.23;;;3.40;;
9115;SDS011;4593;53.652;10.168;2023-10-08T00:13:08;8.13;;;2.90;;
9115;SDS011;4593;53.652;10.168;2023-10-08T00:15:44;4.87;;;2.73;;
9115;SDS011;4593;53.652;10.168;2023-10-08T00:18:19;9.57;;;2.43;;
9115;SDS011;4593;53.652;10.168;2023-10-08T00:20:47;5.40;;;2.30;;
9115;SDS011;4593;53.652;10.168;2023-10-08T00:23:41;4.63;;;2.30;;
9115;SDS011;4593;53.652;10.168;2023-10-08T00:26:25;4.30;;;2.20;;
9115;SDS011;4593;53.652;10.168;2023-10-08T00:31:31;8.37;;;2.80;;
9115;SDS011;4593;53.652;10.168;2023-10-08T00:34:05;3.07;;;2.17;;
9115;SDS011;4593;53.652;10.168;2023-10-08T00:36:33;4.40;;;2.60;;
9115;SDS011;4593;53.652;10.168;2023-10-08T00:38:59;5.80;;;2.73;;
9115;SDS011;4593;53.652;10.168;2023-10-08T00:41:25;4.27;;;2.70;;
9115;SDS011;4593;53.652;10.168;2023-10-08T00:43:57;5.17;;;2.53;;
9115;SDS011;4593;53.652;10.168;2023-10-08T00:46:25;5.47;;;2.93;;
9115;SDS011;4593;53.652;10.168;2023-10-08T00:48:57;4.57;;;2.30;;
9115;SDS011;4593;53.652;10.168;2023-10-08T00:51:43;2.07;;;1.97;;
9115;SDS011;4593;53.652;10.168;2023-10-08T00:54:10;2.90;;;2.37;;
9115;SDS011;4593;53.652;10.168;2023-10-08T00:56:42;7.07;;;2.83;;
9115;SDS011;4593;53.652;10.168;2023-10-08T00:59:19;4.03;;;2.63;;
9115;SDS011;4593;53.652;10.168;2023-10-08T01:01:48;6.47;;;2.30;;
9115;SDS011;4593;53.652;10.168;2023-10-08T01:04:24;5.57;;;2.20;;
9115;SDS011;4593;53.652;10.168;2023-10-08T01:06:58;3.70;;;2.30;;
9115;SDS011;4593;53.652;10.168;2023-10-08T01:09:26;4.73;;;2.23;;
9115;SDS011;4593;53.652;10.168;2023-10-08T01:12:13;2.97;;;2.23;;
9115;SDS011;4593;53.652;10.168;2023-10-08T01:14:46;4.67;;;2.60;;
9115;SDS011;4593;53.652;10.168;2023-10-08T01:17:14;6.43;;;2.37;;
9115;SDS011;4593;53.652;10.168;2023-10-08T01:19:47;2.53;;;2.17;;
9115;SDS011;4593;53.652;10.168;2023-10-08T01:22:18;5.43;;;2.30;;
9115;SDS011;4593;53.652;10.168;2023-10-08T01:24:46;4.80;;;2.17;;
9115;SDS011;4593;53.652;10.168;2023-10-08T01:27:16;2.90;;;2.17;;
9115;SDS011;4593;53.652;10.168;2023-10-08T01:29:48;3.10;;;2.23;;
9115;SDS011;4593;53.652;10.168;2023-10-08T01:32:17;4.30;;;1.87;;
9115;SDS011;4593;53.652;10.168;2023-10-08T01:34:44;4.53;;;2.10;;
9115;SDS011;4593;53.652;10.168;2023-10-08T01:37:13;6.43;;;2.47;;
9115;SDS011;4593;53.652;10.168;2023-10-08T01:39:43;3.47;;;2.13;;
9115;SDS011;4593;53.652;10.168;2023-10-08T01:42:15;6.97;;;2.17;;
9115;SDS011;4593;53.652;10.168;2023-10-08T01:44:48;5.87;;;2.30;;
9115;SDS011;4593;53.652;10.168;2023-10-08T01:47:16;1.87;;;1.77;;
9115;SDS011;4593;53.652;10.168;2023-10-08T01:49:42;3.10;;;2.20;;
9115;SDS011;4593;53.652;10.168;2023-10-08T01:52:10;1.80;;;1.67;;
9115;SDS011;4593;53.652;10.168;2023-10-08T01:54:48;3.87;;;2.13;;
9115;SDS011;4593;53.652;10.168;2023-10-08T01:57:15;2.40;;;2.00;;
9115;SDS011;4593;53.652;10.168;2023-10-08T01:59:42;4.10;;;2.10;;
9115;SDS011;4593;53.652;10.168;2023-10-08T02:02:09;2.07;;;1.97;;
9115;SDS011;4593;53.652;10.168;2023-10-08T02:04:35;4.03;;;1.97;;
9115;SDS011;4593;53.652;10.168;2023-10-08T02:07:02;3.80;;;2.30;;
9115;SDS011;4593;53.652;10.168;2023-10-08T02:09:29;3.37;;;1.90;;
9115;SDS011;4593;53.652;10.168;2023-10-08T02:11:55;2.00;;;1.90;;
9115;SDS011;4593;53.652;10.168;2023-10-08T02:14:22;1.90;;;1.80;;
9115;SDS011;4593;53.652;10.168;2023-10-08T02:16:48;2.60;;;2.17;;
9115;SDS011;4593;53.652;10.168;2023-10-08T02:19:17;3.63;;;1.70;;
9115;SDS011;4593;53.652;10.168;2023-10-08T02:21:43;2.27;;;1.97;;
9115;SDS011;4593;53.652;10.168;2023-10-08T02:24:11;6.00;;;2.20;;
9115;SDS011;4593;53.652;10.168;2023-10-08T02:26:37;4.97;;;2.20;;
9115;SDS011;4593;53.652;10.168;2023-10-08T02:29:04;2.27;;;1.93;;
9115;SDS011;4593;53.652;10.168;2023-10-08T02:31:38;2.10;;;2.00;;
9115;SDS011;4593;53.652;10.168;2023-10-08T02:34:05;4.40;;;1.90;;
9115;SDS011;4593;53.652;10.168;2023-10-08T02:36:33;2.93;;;1.90;;
9115;SDS011;4593;53.652;10.168;2023-10-08T02:39:01;3.70;;;2.10;;
9115;SDS011;4593;53.652;10.168;2023-10-08T02:41:31;5.43;;;2.23;;
9115;SDS011;4593;53.652;10.168;2023-10-08T02:43:57;5.00;;;1.87;;
9115;SDS011;4593;53.652;10.168;2023-10-08T02:46:24;2.20;;;2.00;;
9115;SDS011;4593;53.652;10.168;2023-10-08T02:48:52;5.63;;;1.90;;
9115;SDS011;4593;53.652;10.168;2023-10-08T02:51:18;2.20;;;2.00;;
9115;SDS011;4593;53.652;10.168;2023-10-08T02:53:45;2.20;;;1.80;;
9115;SDS011;4593;53.652;10.168;2023-10-08T02:56:11;2.07;;;1.90;;
9115;SDS011;4593;53.652;10.168;2023-10-08T02:58:40;2.57;;;1.93;;
9115;SDS011;4593;53.652;10.168;2023-10-08T03:01:08;3.90;;;2.30;;
9115;SDS011;4593;53.652;10.168;2023-10-08T03:03:40;2.27;;;2.10;;
9115;SDS011;4593;53.652;10.168;2023-10-08T03:06:11;4.43;;;1.90;;
9115;SDS011;4593;53.652;10.168;2023-10-08T03:08:40;2.20;;;2.00;;
9115;SDS011;4593;53.652;10.168;2023-10-08T03:11:08;5.23;;;2.13;;
9115;SDS011;4593;53.652;10.168;2023-10-08T03:13:43;1.83;;;1.73;;
9115;SDS011;4593;53.652;10.168;2023-10-08T03:16:14;2.50;;;2.07;;
9115;SDS011;4593;53.652;10.168;2023-10-08T03:18:40;2.23;;;1.90;;
9115;SDS011;4593;53.652;10.168;2023-10-08T03:21:15;2.47;;;1.90;;
9115;SDS011;4593;53.652;10.168;2023-10-08T03:23:48;3.10;;;1.83;;
9115;SDS011;4593;53.652;10.168;2023-10-08T03:26:15;4.63;;;2.03;;
9115;SDS011;4593;53.652;10.168;2023-10-08T03:28:56;8.63;;;2.10;;
9115;SDS011;4593;53.652;10.168;2023-10-08T03:31:24;1.73;;;1.63;;
9115;SDS011;4593;53.652;10.168;2023-10-08T03:34:09;4.30;;;2.03;;
9115;SDS011;4593;53.652;10.168;2023-10-08T03:36:38;2.37;;;1.90;;
9115;SDS011;4593;53.652;10.168;2023-10-08T03:39:09;4.10;;;1.83;;
9115;SDS011;4593;53.652;10.168;2023-10-08T03:41:45;4.03;;;2.00;;
9115;SDS011;4593;53.652;10.168;2023-10-08T03:44:24;2.00;;;1.90;;
9115;SDS011;4593;53.652;10.168;2023-10-08T03:46:50;1.83;;;1.73;;
9115;SDS011;4593;53.652;10.168;2023-10-08T03:49:17;6.30;;;1.87;;
9115;SDS011;4593;53.652;10.168;2023-10-08T03:51:46;2.57;;;2.00;;
9115;SDS011;4593;53.652;10.168;2023-10-08T03:54:13;2.80;;;1.90;;
9115;SDS011;4593;53.652;10.168;2023-10-08T03:56:43;4.70;;;2.27;;
9115;SDS011;4593;53.652;10.168;2023-10-08T03:59:14;2.77;;;2.10;;
9115;SDS011;4593;53.652;10.168;2023-10-08T04:01:45;3.00;;;2.13;;
9115;SDS011;4593;53.652;10.168;2023-10-08T04:04:14;1.73;;;1.63;;
9115;SDS011;4593;53.652;10.168;2023-10-08T04:06:41;1.70;;;1.60;;
9115;SDS011;4593;53.652;10.168;2023-10-08T04:09:19;4.07;;;1.90;;
9115;SDS011;4593;53.652;10.168;2023-10-08T04:11:45;2.97;;;1.80;;
9115;SDS011;4593;53.652;10.168;2023-10-08T04:14:17;5.80;;;2.33;;
9115;SDS011;4593;53.652;10.168;2023-10-08T04:16:49;3.97;;;1.80;;
9115;SDS011;4593;53.652;10.168;2023-10-08T04:19:19;1.83;;;1.73;;
9115;SDS011;4593;53.652;10.168;2023-10-08T04:21:46;2.23;;;1.97;;
9115;SDS011;4593;53.652;10.168;2023-10-08T04:24:25;1.90;;;1.77;;
9115;SDS011;4593;53.652;10.168;2023-10-08T04:26:57;5.57;;;1.80;;
9115;SDS011;4593;53.652;10.168;2023-10-08T04:29:23;1.90;;;1.80;;
9115;SDS011;4593;53.652;10.168;2023-10-08T04:31:50;1.77;;;1.67;;
9115;SDS011;4593;53.652;10.168;2023-10-08T04:34:26;1.73;;;1.63;;
9115;SDS011;4593;53.652;10.168;2023-10-08T04:36:53;2.90;;;2.00;;
9115;SDS011;4593;53.652;10.168;2023-10-08T04:39:22;5.87;;;2.20;;
9115;SDS011;4593;53.652;10.168;2023-10-08T04:41:56;3.20;;;2.00;;
9115;SDS011;4593;53.652;10.168;2023-10-08T04:44:25;2.87;;;2.60;;
9115;SDS011;4593;53.652;10.168;2023-10-08T04:46:51;1.70;;;1.60;;
9115;SDS011;4593;53.652;10.168;2023-10-08T04:49:17;2.10;;;2.00;;
9115;SDS011;4593;53.652;10.168;2023-10-08T04:52:00;1.80;;;1.70;;
9115;SDS011;4593;53.652;10.168;2023-10-08T04:54:33;1.87;;;1.77;;
9115;SDS011;4593;53.652;10.168;2023-10-08T04:57:05;1.83;;;1.73;;
9115;SDS011;4593;53.652;10.168;2023-10-08T04:59:31;1.70;;;1.60;;
9115;SDS011;4593;53.652;10.168;2023-10-08T05:02:02;1.70;;;1.60;;
9115;SDS011;4593;53.652;10.168;2023-10-08T05:04:44;3.60;;;1.97;;
9115;SDS011;4593;53.652;10.168;2023-10-08T05:07:22;4.20;;;2.07;;
9115;SDS011;4593;53.652;10.168;2023-10-08T05:09:51;2.20;;;2.00;;
9115;SDS011;4593;53.652;10.168;2023-10-08T05:12:35;1.93;;;1.77;;
9115;SDS011;4593;53.652;10.168;2023-10-08T05:15:15;2.60;;;1.90;;
9115;SDS011;4593;53.652;10.168;2023-10-08T05:17:45;1.87;;;1.77;;
9115;SDS011;4593;53.652;10.168;2023-10-08T05:20:14;3.63;;;1.80;;
9115;SDS011;4593;53.652;10.168;2023-10-08T05:22:59;3.73;;;1.97;;
9115;SDS011;4593;53.652;10.168;2023-10-08T05:25:45;2.80;;;1.90;;
9115;SDS011;4593;53.652;10.168;2023-10-08T05:28:30;2.63;;;2.00;;
9115;SDS011;4593;53.652;10.168;2023-10-08T05:31:06;2.63;;;2.00;;
9115;SDS011;4593;53.652;10.168;2023-10-08T05:33:42;1.90;;;1.80;;
9115;SDS011;4593;53.652;10.168;2023-10-08T05:36:27;2.17;;;2.03;;
9115;SDS011;4593;53.652;10.168;2023-10-08T05:39:18;3.23;;;1.97;;
9115;SDS011;4593;53.652;10.168;2023-10-08T05:41:52;2.00;;;1.90;;
9115;SDS011;4593;53.652;10.168;2023-10-08T05:44:37;3.30;;;1.80;;
9115;SDS011;4593;53.652;10.168;2023-10-08T05:47:11;2.23;;;2.03;;
9115;SDS011;4593;53.652;10.168;2023-10-08T05:49:58;3.10;;;1.87;;
9115;SDS011;4593;53.652;10.168;2023-10-08T05:52:46;2.93;;;2.63;;
9115;SDS011;4593;53.652;10.168;2023-10-08T05:55:18;2.60;;;1.93;;
9115;SDS011;4593;53.652;10.168;2023-10-08T06:00:46;2.33;;;2.13;;
9115;SDS011;4593;53.652;10.168;2023-10-08T06:03:15;2.10;;;1.90;;
9115;SDS011;4593;53.652;10.168;2023-10-08T06:06:12;2.13;;;1.90;;
9115;SDS011;4593;53.652;10.168;2023-10-08T06:08:41;1.90;;;1.80;;
9115;SDS011;4593;53.652;10.168;2023-10-08T06:11:25;3.53;;;1.70;;
9115;SDS011;4593;53.652;10.168;2023-10-08T06:14:21;2.17;;;1.93;;
9115;SDS011;4593;53.652;10.168;2023-10-08T06:17:05;1.80;;;1.70;;
9115;SDS011;4593;53.652;10.168;2023-10-08T06:19:51;2.20;;;2.00;;
9115;SDS011;4593;53.652;10.168;2023-10-08T06:22:17;2.67;;;1.93;;
9115;SDS011;4593;53.652;10.168;2023-10-08T06:24:44;3.00;;;2.03;;
9115;SDS011;4593;53.652;10.168;2023-10-08T06:27:10;1.93;;;1.77;;
9115;SDS011;4593;53.652;10.168;2023-10-08T06:29:41;2.07;;;1.87;;
9115;SDS011;4593;53.652;10.168;2023-10-08T06:32:09;1.90;;;1.80;;
9115;SDS011;4593;53.652;10.168;2023-10-08T06:34:37;1.97;;;1.70;;
9115;SDS011;4593;53.652;10.168;2023-10-08T06:37:05;1.90;;;1.80;;
9115;SDS011;4593;53.652;10.168;2023-10-08T06:39:33;2.00;;;1.80;;
9115;SDS011;4593;53.652;10.168;2023-10-08T06:42:12;2.23;;;1.90;;
9115;SDS011;4593;53.652;10.168;2023-10-08T06:44:39;2.40;;;2.20;;
9115;SDS011;4593;53.652;10.168;2023-10-08T06:47:07;1.80;;;1.70;;
9115;SDS011;4593;53.652;10.168;2023-10-08T06:49:34;1.80;;;1.70;;
9115;SDS011;4593;53.652;10.168;2023-10-08T06:52:01;2.10;;;1.90;;
9115;SDS011;4593;53.652;10.168;2023-10-08T06:54:27;4.67;;;2.50;;
9115;SDS011;4593;53.652;10.168;2023-10-08T06:56:55;2.50;;;1.90;;
9115;SDS011;4593;53.652;10.168;2023-10-08T06:59:21;1.80;;;1.70;;
9115;SDS011;4593;53.652;10.168;2023-10-08T07:01:48;2.37;;;2.10;;
9115;SDS011;4593;53.652;10.168;2023-10-08T07:04:16;2.13;;;1.70;;
9115;SDS011;4593;53.652;10.168;2023-10-08T07:06:44;2.53;;;1.93;;
9115;SDS011;4593;53.652;10.168;2023-10-08T07:09:11;2.03;;;1.90;;
9115;SDS011;4593;53.652;10.168;2023-10-08T07:11:53;3.87;;;2.20;;
9115;SDS011;4593;53.652;10.168;2023-10-08T07:14:24;4.70;;;1.80;;
9115;SDS011;4593;53.652;10.168;2023-10-08T07:16:55;3.17;;;2.13;;
9115;SDS011;4593;53.652;10.168;2023-10-08T07:19:27;4.40;;;2.03;;
9115;SDS011;4593;53.652;10.168;2023-10-08T07:22:05;4.60;;;1.70;;
9115;SDS011;4593;53.652;10.168;2023-10-08T07:24:43;3.20;;;1.90;;
9115;SDS011;4593;53.652;10.168;2023-10-08T07:27:15;3.20;;;1.97;;
9115;SDS011;4593;53.652;10.168;2023-10-08T07:29:46;3.57;;;1.90;;
9115;SDS011;4593;53.652;10.168;2023-10-08T07:32:12;5.73;;;2.00;;
9115;SDS011;4593;53.652;10.168;2023-10-08T07:34:43;5.10;;;2.00;;
9115;SDS011;4593;53.652;10.168;2023-10-08T07:37:09;4.30;;;1.90;;
9115;SDS011;4593;53.652;10.168;2023-10-08T07:39:36;2.23;;;2.03;;
9115;SDS011;4593;53.652;10.168;2023-10-08T07:42:10;5.03;;;1.80;;
9115;SDS011;4593;53.652;10.168;2023-10-08T07:44:36;1.93;;;1.73;;
9115;SDS011;4593;53.652;10.168;2023-10-08T07:47:04;4.70;;;2.03;;
9115;SDS011;4593;53.652;10.168;2023-10-08T07:49:33;1.97;;;1.87;;
9115;SDS011;4593;53.652;10.168;2023-10-08T07:51:58;2.13;;;1.93;;
9115;SDS011;4593;53.652;10.168;2023-10-08T07:54:25;3.10;;;2.03;;
9115;SDS011;4593;53.652;10.168;2023-10-08T07:56:54;1.97;;;1.87;;
9115;SDS011;4593;53.652;10.168;2023-10-08T07:59:40;1.93;;;1.80;;
9115;SDS011;4593;53.652;10.168;2023-10-08T08:02:07;3.17;;;1.87;;
9115;SDS011;4593;53.652;10.168;2023-10-08T08:04:43;1.83;;;1.67;;
9115;SDS011;4593;53.652;10.168;2023-10-08T08:07:10;3.43;;;1.70;;
9115;SDS011;4593;53.652;10.168;2023-10-08T08:09:41;4.40;;;1.70;;
9115;SDS011;4593;53.652;10.168;2023-10-08T08:12:13;2.53;;;1.80;;
9115;SDS011;4593;53.652;10.168;2023-10-08T08:14:39;1.80;;;1.70;;
9115;SDS011;4593;53.652;10.168;2023-10-08T08:17:07;7.00;;;2.10;;
9115;SDS011;4593;53.652;10.168;2023-10-08T08:19:42;6.03;;;1.97;;
9115;SDS011;4593;53.652;10.168;2023-10-08T08:22:17;4.43;;;1.90;;
9115;SDS011;4593;53.652;10.168;2023-10-08T08:24:50;1.93;;;1.77;;
9115;SDS011;4593;53.652;10.168;2023-10-08T08:27:40;5.63;;;1.83;;
9115;SDS011;4593;53.652;10.168;2023-10-08T08:30:11;2.40;;;1.77;;
9115;SDS011;4593;53.652;10.168;2023-10-08T08:32:41;7.60;;;2.10;;
9115;SDS011;4593;53.652;10.168;2023-10-08T08:35:08;1.60;;;1.50;;
9115;SDS011;4593;53.652;10.168;2023-10-08T08:37:35;4.80;;;1.90;;
9115;SDS011;4593;53.652;10.168;2023-10-08T08:40:03;5.23;;;2.10;;
9115;SDS011;4593;53.652;10.168;2023-10-08T08:42:48;2.43;;;2.00;;
9115;SDS011;4593;53.652;10.168;2023-10-08T08:45:21;2.20;;;2.00;;
9115;SDS011;4593;53.652;10.168;2023-10-08T08:47:51;6.53;;;1.90;;
9115;SDS011;4593;53.652;10.168;2023-10-08T08:50:17;3.63;;;1.80;;
9115;SDS011;4593;53.652;10.168;2023-10-08T08:52:44;2.20;;;1.77;;
9115;SDS011;4593;53.652;10.168;2023-10-08T08:55:13;3.97;;;1.80;;
9115;SDS011;4593;53.652;10.168;2023-10-08T08:57:46;5.30;;;2.10;;
9115;SDS011;4593;53.652;10.168;2023-10-08T09:00:14;8.03;;;1.87;;
9115;SDS011;4593;53.652;10.168;2023-10-08T09:02:42;1.70;;;1.60;;
9115;SDS011;4593;53.652;10.168;2023-10-08T09:05:10;3.93;;;2.00;;
9115;SDS011;4593;53.652;10.168;2023-10-08T09:10:23;1.87;;;1.77;;
9115;SDS011;4593;53.652;10.168;2023-10-08T09:12:53;2.03;;;1.80;;
9115;SDS011;4593;53.652;10.168;2023-10-08T09:15:23;2.83;;;1.80;;
9115;SDS011;4593;53.652;10.168;2023-10-08T09:17:51;1.70;;;1.60;;
9115;SDS011;4593;53.652;10.168;2023-10-08T09:20:18;3.67;;;1.87;;
9115;SDS011;4593;53.652;10.168;2023-10-08T09:22:45;3.37;;;1.80;;
9115;SDS011;4593;53.652;10.168;2023-10-08T09:25:15;3.03;;;2.23;;
9115;SDS011;4593;53.652;10.168;2023-10-08T09:27:54;3.53;;;1.90;;
9115;SDS011;4593;53.652;10.168;2023-10-08T09:30:21;6.13;;;2.10;;
9115;SDS011;4593;53.652;10.168;2023-10-08T09:32:47;2.97;;;1.97;;
9115;SDS011;4593;53.652;10.168;2023-10-08T09:35:15;4.10;;;1.93;;
9115;SDS011;4593;53.652;10.168;2023-10-08T09:37:42;1.37;;;1.37;;
9115;SDS011;4593;53.652;10.168;2023-10-08T09:40:09;3.00;;;1.90;;
9115;SDS011;4593;53.652;10.168;2023-10-08T09:42:39;2.10;;;1.80;;
9115;SDS011;4593;53.652;10.168;2023-10-08T09:45:07;6.40;;;2.10;;
9115;SDS011;4593;53.652;10.168;2023-10-08T09:47:36;3.10;;;1.80;;
9115;SDS011;4593;53.652;10.168;2023-10-08T09:50:04;4.63;;;2.10;;
9115;SDS011;4593;53.652;10.168;2023-10-08T09:52:37;6.30;;;2.40;;
9115;SDS011;4593;53.652;10.168;2023-10-08T09:55:10;3.10;;;2.00;;
9115;SDS011;4593;53.652;10.168;2023-10-08T09:57:36;2.13;;;1.97;;
9115;SDS011;4593;53.652;10.168;2023-10-08T10:00:03;5.13;;;2.13;;
9115;SDS011;4593;53.652;10.168;2023-10-08T10:02:35;4.60;;;2.63;;
9115;SDS011;4593;53.652;10.168;2023-10-08T10:05:02;2.40;;;1.93;;
9115;SDS011;4593;53.652;10.168;2023-10-08T10:07:28;2.00;;;1.80;;
9115;SDS011;4593;53.652;10.168;2023-10-08T10:09:55;5.33;;;1.60;;
9115;SDS011;4593;53.652;10.168;2023-10-08T10:12:26;1.80;;;1.70;;
9115;SDS011;4593;53.652;10.168;2023-10-08T10:14:53;4.43;;;2.00;;
9115;SDS011;4593;53.652;10.168;2023-10-08T10:17:24;3.97;;;1.80;;
9115;SDS011;4593;53.652;10.168;2023-10-08T10:22:30;1.80;;;1.70;;
9115;SDS011;4593;53.652;10.168;2023-10-08T10:25:04;1.77;;;1.67;;
9115;SDS011;4593;53.652;10.168;2023-10-08T10:28:12;3.10;;;1.70;;
9115;SDS011;4593;53.652;10.168;2023-10-08T10:30:33;3.10;;;1.80;;
9115;SDS011;4593;53.652;10.168;2023-10-08T10:33:02;1.97;;;1.80;;
9115;SDS011;4593;53.652;10.168;2023-10-08T10:35:31;2.23;;;1.70;;
9115;SDS011;4593;53.652;10.168;2023-10-08T10:37:58;4.00;;;1.83;;
9115;SDS011;4593;53.652;10.168;2023-10-08T10:40:28;3.13;;;1.80;;
9115;SDS011;4593;53.652;10.168;2023-10-08T10:43:04;4.63;;;2.03;;
9115;SDS011;4593;53.652;10.168;2023-10-08T10:45:40;2.60;;;1.73;;
9115;SDS011;4593;53.652;10.168;2023-10-08T10:48:11;2.33;;;1.70;;
9115;SDS011;4593;53.652;10.168;2023-10-08T10:50:57;2.57;;;1.90;;
9115;SDS011;4593;53.652;10.168;2023-10-08T10:53:31;3.83;;;1.97;;
9115;SDS011;4593;53.652;10.168;2023-10-08T10:56:13;3.77;;;1.70;;
9115;SDS011;4593;53.652;10.168;2023-10-08T10:58:52;1.67;;;1.57;;
9115;SDS011;4593;53.652;10.168;2023-10-08T11:01:18;1.70;;;1.60;;
9115;SDS011;4593;53.652;10.168;2023-10-08T11:03:52;1.90;;;1.77;;
9115;SDS011;4593;53.652;10.168;2023-10-08T11:06:21;1.87;;;1.67;;
9115;SDS011;4593;53.652;10.168;2023-10-08T11:08:49;3.50;;;1.70;;
9115;SDS011;4593;53.652;10.168;2023-10-08T11:11:33;1.80;;;1.70;;
9115;SDS011;4593;53.652;10.168;2023-10-08T11:14:01;1.67;;;1.57;;
9115;SDS011;4593;53.652;10.168;2023-10-08T11:16:27;1.70;;;1.60;;
9115;SDS011;4593;53.652;10.168;2023-10-08T11:18:56;1.70;;;1.60;;
9115;SDS011;4593;53.652;10.168;2023-10-08T11:21:31;1.53;;;1.43;;
9115;SDS011;4593;53.652;10.168;2023-10-08T11:23:59;3.20;;;2.07;;
9115;SDS011;4593;53.652;10.168;2023-10-08T11:26:26;3.53;;;1.70;;
9115;SDS011;4593;53.652;10.168;2023-10-08T11:29:04;2.20;;;1.87;;
9115;SDS011;4593;53.652;10.168;2023-10-08T11:31:39;1.80;;;1.60;;
9115;SDS011;4593;53.652;10.168;2023-10-08T11:34:05;2.77;;;1.43;;
9115;SDS011;4593;53.652;10.168;2023-10-08T11:36:35;1.80;;;1.60;;
9115;SDS011;4593;53.652;10.168;2023-10-08T11:39:14;1.80;;;1.60;;
9115;SDS011;4593;53.652;10.168;2023-10-08T11:42:02;1.60;;;1.50;;
9115;SDS011;4593;53.652;10.168;2023-10-08T11:44:31;1.70;;;1.60;;
9115;SDS011;4593;53.652;10.168;2023-10-08T11:47:01;1.80;;;1.60;;
9115;SDS011;4593;53.652;10.168;2023-10-08T11:49:46;1.67;;;1.50;;
9115;SDS011;4593;53.652;10.168;2023-10-08T11:52:34;3.60;;;1.70;;
9115;SDS011;4593;53.652;10.168;2023-10-08T11:55:02;2.00;;;1.50;;
9115;SDS011;4593;53.652;10.168;2023-10-08T11:57:31;1.93;;;1.83;;
9115;SDS011;4593;53.652;10.168;2023-10-08T11:59:57;2.50;;;1.60;;
9115;SDS011;4593;53.652;10.168;2023-10-08T12:02:24;1.73;;;1.63;;
9115;SDS011;4593;53.652;10.168;2023-10-08T12:04:51;1.83;;;1.63;;
9115;SDS011;4593;53.652;10.168;2023-10-08T12:07:17;4.40;;;1.67;;
9115;SDS011;4593;53.652;10.168;2023-10-08T12:09:43;1.63;;;1.53;;
9115;SDS011;4593;53.652;10.168;2023-10-08T12:12:13;3.30;;;1.60;;
9115;SDS011;4593;53.652;10.168;2023-10-08T12:14:40;2.77;;;1.90;;
9115;SDS011;4593;53.652;10.168;2023-10-08T12:17:09;2.67;;;1.60;;
9115;SDS011;4593;53.652;10.168;2023-10-08T12:19:39;1.70;;;1.60;;
9115;SDS011;4593;53.652;10.168;2023-10-08T12:22:07;1.50;;;1.40;;
9115;SDS011;4593;53.652;10.168;2023-10-08T12:24:33;1.87;;;1.50;;
9115;SDS011;4593;53.652;10.168;2023-10-08T12:26:59;1.80;;;1.70;;
9115;SDS011;4593;53.652;10.168;2023-10-08T12:29:28;1.50;;;1.40;;
9115;SDS011;4593;53.652;10.168;2023-10-08T12:31:53;1.70;;;1.60;;
9115;SDS011;4593;53.652;10.168;2023-10-08T12:34:19;1.60;;;1.50;;
9115;SDS011;4593;53.652;10.168;2023-10-08T12:36:48;3.00;;;1.70;;
9115;SDS011;4593;53.652;10.168;2023-10-08T12:39:13;1.50;;;1.30;;
9115;SDS011;4593;53.652;10.168;2023-10-08T12:41:42;1.80;;;1.70;;
9115;SDS011;4593;53.652;10.168;2023-10-08T12:44:09;1.80;;;1.70;;
9115;SDS011;4593;53.652;10.168;2023-10-08T12:46:35;3.23;;;1.60;;
9115;SDS011;4593;53.652;10.168;2023-10-08T12:49:01;3.70;;;1.57;;
9115;SDS011;4593;53.652;10.168;2023-10-08T12:51:28;1.50;;;1.40;;
9115;SDS011;4593;53.652;10.168;2023-10-08T12:53:58;1.50;;;1.40;;
9115;SDS011;4593;53.652;10.168;2023-10-08T12:56:29;1.60;;;1.50;;
9115;SDS011;4593;53.652;10.168;2023-10-08T12:59:03;1.67;;;1.50;;
9115;SDS011;4593;53.652;10.168;2023-10-08T13:01:31;1.50;;;1.40;;
9115;SDS011;4593;53.652;10.168;2023-10-08T13:03:57;1.80;;;1.70;;
9115;SDS011;4593;53.652;10.168;2023-10-08T13:06:26;1.77;;;1.50;;
9115;SDS011;4593;53.652;10.168;2023-10-08T13:08:57;1.50;;;1.40;;
9115;SDS011;4593;53.652;10.168;2023-10-08T13:11:24;1.77;;;1.57;;
9115;SDS011;4593;53.652;10.168;2023-10-08T13:13:55;1.83;;;1.70;;
9115;SDS011;4593;53.652;10.168;2023-10-08T13:16:23;1.60;;;1.50;;
9115;SDS011;4593;53.652;10.168;2023-10-08T13:18:56;1.50;;;1.40;;
9115;SDS011;4593;53.652;10.168;2023-10-08T13:21:23;3.43;;;1.80;;
9115;SDS011;4593;53.652;10.168;2023-10-08T13:23:53;1.70;;;1.60;;
9115;SDS011;4593;53.652;10.168;2023-10-08T13:26:22;1.80;;;1.70;;
9115;SDS011;4593;53.652;10.168;2023-10-08T13:28:49;1.60;;;1.50;;
9115;SDS011;4593;53.652;10.168;2023-10-08T13:31:15;1.50;;;1.40;;
9115;SDS011;4593;53.652;10.168;2023-10-08T13:33:42;2.40;;;2.07;;
9115;SDS011;4593;53.652;10.168;2023-10-08T13:36:10;1.50;;;1.40;;
9115;SDS011;4593;53.652;10.168;2023-10-08T13:38:38;1.53;;;1.43;;
9115;SDS011;4593;53.652;10.168;2023-10-08T13:41:05;1.77;;;1.67;;
9115;SDS011;4593;53.652;10.168;2023-10-08T13:43:40;1.77;;;1.60;;
9115;SDS011;4593;53.652;10.168;2023-10-08T13:46:07;1.50;;;1.40;;
9115;SDS011;4593;53.652;10.168;2023-10-08T13:48:38;2.30;;;1.50;;
9115;SDS011;4593;53.652;10.168;2023-10-08T13:51:06;1.60;;;1.50;;
9115;SDS011;4593;53.652;10.168;2023-10-08T13:53:38;1.63;;;1.53;;
9115;SDS011;4593;53.652;10.168;2023-10-08T13:56:10;1.40;;;1.37;;
9115;SDS011;4593;53.652;10.168;2023-10-08T13:58:37;1.97;;;1.50;;
9115;SDS011;4593;53.652;10.168;2023-10-08T14:01:05;1.77;;;1.63;;
9115;SDS011;4593;53.652;10.168;2023-10-08T14:03:44;1.90;;;1.50;;
9115;SDS011;4593;53.652;10.168;2023-10-08T14:06:14;1.77;;;1.50;;
9115;SDS011;4593;53.652;10.168;2023-10-08T14:08:41;2.90;;;1.63;;
9115;SDS011;4593;53.652;10.168;2023-10-08T14:11:13;1.70;;;1.60;;
9115;SDS011;4593;53.652;10.168;2023-10-08T14:13:39;1.60;;;1.50;;
9115;SDS011;4593;53.652;10.168;2023-10-08T14:16:07;1.80;;;1.70;;
9115;SDS011;4593;53.652;10.168;2023-10-08T14:18:36;2.37;;;1.87;;
9115;SDS011;4593;53.652;10.168;2023-10-08T14:21:18;2.67;;;1.67;;
9115;SDS011;4593;53.652;10.168;2023-10-08T14:23:48;1.90;;;1.50;;
9115;SDS011;4593;53.652;10.168;2023-10-08T14:26:17;2.57;;;1.60;;
9115;SDS011;4593;53.652;10.168;2023-10-08T14:28:46;2.83;;;1.80;;
9115;SDS011;4593;53.652;10.168;2023-10-08T14:31:18;1.63;;;1.53;;
9115;SDS011;4593;53.652;10.168;2023-10-08T14:33:47;3.43;;;1.67;;
9115;SDS011;4593;53.652;10.168;2023-10-08T14:36:52;1.53;;;1.43;;
9115;SDS011;4593;53.652;10.168;2023-10-08T14:39:36;2.90;;;1.60;;
9115;SDS011;4593;53.652;10.168;2023-10-08T14:42:20;2.07;;;1.60;;
9115;SDS011;4593;53.652;10.168;2023-10-08T14:45:06;1.70;;;1.60;;
9115;SDS011;4593;53.652;10.168;2023-10-08T14:47:36;2.00;;;1.70;;
9115;SDS011;4593;53.652;10.168;2023-10-08T14:50:02;1.60;;;1.50;;
9115;SDS011;4593;53.652;10.168;2023-10-08T14:52:30;3.40;;;1.70;;
9115;SDS011;4593;53.652;10.168;2023-10-08T14:54:58;1.60;;;1.50;;
9115;SDS011;4593;53.652;10.168;2023-10-08T14:57:24;2.97;;;1.73;;
9115;SDS011;4593;53.652;10.168;2023-10-08T14:59:51;1.77;;;1.67;;
9115;SDS011;4593;53.652;10.168;2023-10-08T15:02:17;2.33;;;2.00;;
9115;SDS011;4593;53.652;10.168;2023-10-08T15:04:43;1.90;;;1.80;;
9115;SDS011;4593;53.652;10.168;2023-10-08T15:07:09;2.17;;;1.87;;
9115;SDS011;4593;53.652;10.168;2023-10-08T15:09:42;1.70;;;1.60;;
9115;SDS011;4593;53.652;10.168;2023-10-08T15:12:09;2.03;;;1.80;;
9115;SDS011;4593;53.652;10.168;2023-10-08T15:14:35;1.70;;;1.60;;
9115;SDS011;4593;53.652;10.168;2023-10-08T15:17:03;1.70;;;1.60;;
9115;SDS011;4593;53.652;10.168;2023-10-08T15:19:30;1.70;;;1.60;;
9115;SDS011;4593;53.652;10.168;2023-10-08T15:21:56;1.70;;;1.60;;
9115;SDS011;4593;53.652;10.168;2023-10-08T15:24:23;2.10;;;1.90;;
9115;SDS011;4593;53.652;10.168;2023-10-08T15:26:53;2.43;;;1.70;;
9115;SDS011;4593;53.652;10.168;2023-10-08T15:29:19;1.83;;;1.73;;
9115;SDS011;4593;53.652;10.168;2023-10-08T15:31:49;1.80;;;1.70;;
9115;SDS011;4593;53.652;10.168;2023-10-08T15:34:16;1.73;;;1.63;;